Terminal Aerodrome Forecast
Issued by NWS Upton, NY

Home | Current Version | Previous Version | Text Only | Print | Product List | Glossary On
Versions: 1 2 3 4 5 6 7 8 9 10 11 12 13 14 15 16 17 18 19 20 21 22 23 24 25 26 27 28 29 30 31 32 33 34 35
239
FTUS41 KOKX 230709 AAA
TAFJFK
TAF AMD
KJFK 230709Z 2307/2412 VRB02KT 4SM BR SCT004 SCT250
     FM230800 VRB02KT 1SM BR BKN004
     FM230900 VRB02KT 1/2SM FG OVC003
      TEMPO 2309/2312 1/4SM FG OVC002
     FM231500 20008KT 3SM BR BKN010
     FM231900 20010KT P6SM BKN030
     FM240300 19005KT 3SM BR SCT004 OVC025
     FM240700 17004KT 1/2SM FG OVC004=

USA.gov is the U.S. government's official web portal to all federal, state and local government web resources and services.